Pagrindinis puslapis
METAR-TAF:

METAR-TAF

Oro uostai :

Ilas, Peru

platuma: 17-41-45S, ilguma: 071-20-35W, Aukštis: 22 m

Dabartinis oras

Ataskaita buvo paskelbta 6 valandos ir 16 minutes, ne 21:00 UTC
Vėjas 11 kt iš Pietų/Pietryčių
Temperatūra 19°C
Drėgmė 78%
Slėgis 1015 hPa
Matomumas 10 km arba daugiau
Su prošvaistėmis ne aukštis 3000 ft

METAR: SPLO 162100Z 15011KT 9999 BKN030 19/15 Q1015 RMK TX20.2 PP000

Laikas: 22:16 (03:16 UTC)

Prognozė

Ataskaita buvo paskelbta 10 valandos ir 14 minutes, ne 17:02 UTC
Prognozė galioja nuo 16 metu 18 UTC su 17 metu 18 UTC
Vėjas 9 kt iš Pietų
Matomumas 10 km arba daugiau
nėra debesų žemiau 1500 m ir nėra kamuolinių lietaus debesų
Nuo 17 metu 0000 UTC
Vėjas 2 kt nuo kintamojo kryptimis
Matomumas: 8000 m
Su prošvaistėmis ne aukštis 2500 ft
Nuo 17 metu 1500 UTC
Vėjas 8 kt iš Pietų/Pietryčių
Matomumas 10 km arba daugiau
nėra debesų žemiau 1500 m ir nėra kamuolinių lietaus debesų

TAF: SPLO 161702Z 1618/1718 17009KT CAVOK TX21/1619Z TN15/1711Z FM170000 VRB02KT 8000 BKN025 FM171500 16008KT CAVOK

Orai ataskaitas ir orų prognozės (METAR, TAF).

turimą stotys yra geltonos ir raudonos taškus žemėlapyje.

Perkelti pele per norėdami pamatyti stoties vardą.

Tada spustelėkite, norėdami matyti oro stebėjimo ir prognozės.

Norėdami pakeisti žemėlapį: spustelėkite ant žalios mygtukų su juodo kryžiaus žemyn,; žalią mygtuką su brūkšneliu, jei norite nutolinti; arba žalių rodyklių gretimoms žemėlapius.


METAR-TAF: